BOX467 EDDF-ENZV
Flight info
| Callsign | BOX467 |
|---|---|
| Flight time | 1h 34m |
| Altitude | 34000 |
| Route | OBOKA5S OBOKA Z28 DIBIR DCT BUDIP DCT ALFEN DCT PETIK DCT GODOS DCT ROKAN/N0475F350 DCT LARGA DCT PENUN DCT UNBUD |
| Aircraft | B77L/H-SDE1E2E3FGHIJ2J3J4J5M1RWXY/LB1D1 |
Departure
| Time | 2026-04-17 11:14 |
|---|---|
| Airport | Frankfurt Main Airport (EDDF) |
Arrival
| Time | 2026-04-17 12:48 |
|---|---|
| Airport | Stavanger Airport, Sola (ENZV) |
| Time | Latitude | Longitude | Altitude | Speed | Heading |
|---|---|---|---|---|---|
| 2026-04-17 10:47 | 50.03780 | 8.53366 | 354 ft | 0 kts | 339° |
| 2026-04-17 11:06 | 50.03762 | 8.53376 | 357 ft | 4 kts | 340° |
| 2026-04-17 11:06 | 50.03738 | 8.53391 | 357 ft | 3 kts | 338° |
| 2026-04-17 11:06 | 50.03713 | 8.53401 | 357 ft | 4 kts | 5° |
| 2026-04-17 11:06 | 50.03690 | 8.53387 | 357 ft | 4 kts | 46° |
| 2026-04-17 11:07 | 50.03676 | 8.53353 | 356 ft | 4 kts | 68° |
| 2026-04-17 11:07 | 50.03670 | 8.53328 | 356 ft | 2 kts | 70° |
| 2026-04-17 11:09 | 50.03670 | 8.53329 | 346 ft | 0 kts | 70° |
| 2026-04-17 11:09 | 50.03673 | 8.53343 | 354 ft | 5 kts | 70° |
| 2026-04-17 11:09 | 50.03693 | 8.53425 | 352 ft | 9 kts | 69° |
| 2026-04-17 11:10 | 50.03661 | 8.53571 | 352 ft | 9 kts | 172° |
| 2026-04-17 11:10 | 50.03598 | 8.53541 | 355 ft | 10 kts | 202° |
| 2026-04-17 11:10 | 50.03520 | 8.53487 | 355 ft | 15 kts | 204° |
| 2026-04-17 11:10 | 50.03431 | 8.53369 | 352 ft | 18 kts | 249° |
| 2026-04-17 11:11 | 50.03387 | 8.53188 | 353 ft | 18 kts | 249° |
| 2026-04-17 11:11 | 50.03343 | 8.53006 | 336 ft | 18 kts | 249° |
| 2026-04-17 11:11 | 50.03334 | 8.52846 | 336 ft | 12 kts | 304° |
| 2026-04-17 11:11 | 50.03417 | 8.52794 | 335 ft | 14 kts | 323° |
| 2026-04-17 11:12 | 50.03429 | 8.52730 | 337 ft | 8 kts | 261° |
| 2026-04-17 11:12 | 50.03397 | 8.52613 | 335 ft | 13 kts | 226° |
| 2026-04-17 11:12 | 50.03359 | 8.52595 | 337 ft | 0 kts | 180° |
| 2026-04-17 11:13 | 50.03340 | 8.52595 | 339 ft | 17 kts | 180° |
| 2026-04-17 11:13 | 50.02944 | 8.52599 | 339 ft | 96 kts | 179° |
| 2026-04-17 11:13 | 50.02139 | 8.52609 | 335 ft | 120 kts | 179° |
| 2026-04-17 11:13 | 50.01167 | 8.52615 | 349 ft | 182 kts | 180° |
| 2026-04-17 11:14 | 49.99898 | 8.52590 | 825 ft | 176 kts | 182° |
| 2026-04-17 11:14 | 49.98672 | 8.52517 | 1241 ft | 179 kts | 184° |
| 2026-04-17 11:14 | 49.97418 | 8.52349 | 1613 ft | 181 kts | 188° |
| 2026-04-17 11:14 | 49.96173 | 8.52053 | 1980 ft | 181 kts | 197° |
| 2026-04-17 11:15 | 49.95077 | 8.51060 | 2101 ft | 189 kts | 221° |
| 2026-04-17 11:15 | 49.94029 | 8.49544 | 2745 ft | 224 kts | 225° |
| 2026-04-17 11:15 | 49.92946 | 8.47821 | 3473 ft | 220 kts | 226° |
| 2026-04-17 11:15 | 49.91940 | 8.46060 | 3900 ft | 223 kts | 239° |
| 2026-04-17 11:16 | 49.91210 | 8.43764 | 4216 ft | 252 kts | 239° |
| 2026-04-17 11:16 | 49.90189 | 8.41506 | 5094 ft | 260 kts | 230° |
| 2026-04-17 11:16 | 49.88971 | 8.39391 | 6174 ft | 264 kts | 225° |
| 2026-04-17 11:16 | 49.87808 | 8.37175 | 7053 ft | 271 kts | 242° |
| 2026-04-17 11:17 | 49.87340 | 8.34325 | 8023 ft | 277 kts | 269° |
| 2026-04-17 11:17 | 49.87714 | 8.31406 | 9106 ft | 279 kts | 295° |
| 2026-04-17 11:17 | 49.88714 | 8.28824 | 10020 ft | 283 kts | 303° |
| 2026-04-17 11:17 | 49.89818 | 8.26245 | 10831 ft | 293 kts | 303° |
| 2026-04-17 11:18 | 49.91125 | 8.23663 | 11103 ft | 320 kts | 317° |
| 2026-04-17 11:18 | 49.92966 | 8.21554 | 11346 ft | 349 kts | 326° |
| 2026-04-17 11:18 | 49.95076 | 8.19418 | 11813 ft | 369 kts | 326° |
| 2026-04-17 11:18 | 49.97264 | 8.17226 | 12687 ft | 377 kts | 326° |
| 2026-04-17 11:19 | 49.99474 | 8.14987 | 13692 ft | 382 kts | 326° |
| 2026-04-17 11:19 | 50.01699 | 8.12694 | 14643 ft | 386 kts | 325° |
| 2026-04-17 11:19 | 50.03943 | 8.10350 | 15524 ft | 390 kts | 325° |
| 2026-04-17 11:19 | 50.06206 | 8.07962 | 16363 ft | 396 kts | 324° |
| 2026-04-17 11:20 | 50.08492 | 8.05532 | 17202 ft | 401 kts | 324° |
| 2026-04-17 11:20 | 50.10816 | 8.03054 | 18045 ft | 406 kts | 324° |
| 2026-04-17 11:20 | 50.13156 | 8.00551 | 18829 ft | 411 kts | 324° |
| 2026-04-17 11:20 | 50.15454 | 7.98090 | 19580 ft | 414 kts | 324° |
| 2026-04-17 11:21 | 50.17834 | 7.95537 | 20183 ft | 417 kts | 324° |
| 2026-04-17 11:21 | 50.20233 | 7.92960 | 20209 ft | 420 kts | 324° |
| 2026-04-17 11:21 | 50.22632 | 7.90381 | 20234 ft | 418 kts | 324° |
| 2026-04-17 11:21 | 50.25026 | 7.87804 | 20211 ft | 418 kts | 324° |
| 2026-04-17 11:22 | 50.27415 | 7.85220 | 20235 ft | 418 kts | 324° |
| 2026-04-17 11:22 | 50.29809 | 7.82627 | 20235 ft | 419 kts | 323° |
| 2026-04-17 11:22 | 50.32169 | 7.80072 | 20233 ft | 419 kts | 323° |
| 2026-04-17 11:22 | 50.34569 | 7.77475 | 20232 ft | 419 kts | 323° |
| 2026-04-17 11:23 | 50.36969 | 7.74876 | 20235 ft | 419 kts | 323° |
| 2026-04-17 11:23 | 50.39369 | 7.72274 | 20236 ft | 419 kts | 323° |
| 2026-04-17 11:23 | 50.41763 | 7.69676 | 20237 ft | 419 kts | 323° |
| 2026-04-17 11:23 | 50.44161 | 7.67070 | 20240 ft | 419 kts | 323° |
| 2026-04-17 11:24 | 50.46552 | 7.64468 | 20217 ft | 418 kts | 323° |
| 2026-04-17 11:24 | 50.48954 | 7.61850 | 20679 ft | 421 kts | 323° |
| 2026-04-17 11:24 | 50.51366 | 7.59217 | 21490 ft | 423 kts | 323° |
| 2026-04-17 11:24 | 50.53795 | 7.56563 | 22088 ft | 431 kts | 323° |
| 2026-04-17 11:25 | 50.56301 | 7.53819 | 22298 ft | 446 kts | 323° |
| 2026-04-17 11:25 | 50.58826 | 7.51052 | 23049 ft | 446 kts | 323° |
| 2026-04-17 11:25 | 50.61363 | 7.48272 | 24106 ft | 440 kts | 323° |
| 2026-04-17 11:25 | 50.63857 | 7.45534 | 25030 ft | 435 kts | 323° |
| 2026-04-17 11:26 | 50.66334 | 7.42811 | 25866 ft | 433 kts | 323° |
| 2026-04-17 11:26 | 50.68793 | 7.40104 | 26724 ft | 429 kts | 323° |
| 2026-04-17 11:26 | 50.71220 | 7.37404 | 27617 ft | 425 kts | 321° |
| 2026-04-17 11:26 | 50.73459 | 7.34424 | 28542 ft | 419 kts | 315° |
| 2026-04-17 11:27 | 50.75488 | 7.31146 | 29448 ft | 415 kts | 311° |
| 2026-04-17 11:27 | 50.77310 | 7.27653 | 30329 ft | 411 kts | 305° |
| 2026-04-17 11:27 | 50.78953 | 7.23997 | 31061 ft | 407 kts | 304° |
| 2026-04-17 11:27 | 50.80565 | 7.20323 | 31808 ft | 403 kts | 304° |
| 2026-04-17 11:28 | 50.82157 | 7.16690 | 32557 ft | 399 kts | 304° |
| 2026-04-17 11:28 | 50.83735 | 7.13105 | 33256 ft | 396 kts | 304° |
| 2026-04-17 11:28 | 50.85312 | 7.09537 | 33938 ft | 393 kts | 304° |
| 2026-04-17 11:28 | 50.86878 | 7.06004 | 34522 ft | 390 kts | 304° |
| 2026-04-17 11:29 | 50.88436 | 7.02487 | 34939 ft | 391 kts | 304° |
| 2026-04-17 11:29 | 50.89947 | 6.99073 | 35306 ft | 392 kts | 304° |
| 2026-04-17 11:29 | 50.93143 | 6.91865 | 35474 ft | 411 kts | 304° |
| 2026-04-17 11:30 | 50.96491 | 6.84305 | 35618 ft | 427 kts | 304° |
| 2026-04-17 11:30 | 50.99958 | 6.76450 | 35753 ft | 441 kts | 304° |
| 2026-04-17 11:31 | 51.01715 | 6.72459 | 35979 ft | 443 kts | 304° |
| 2026-04-17 11:31 | 51.03480 | 6.68443 | 36254 ft | 443 kts | 304° |
| 2026-04-17 11:31 | 51.07019 | 6.60378 | 36213 ft | 444 kts | 304° |
| 2026-04-17 11:32 | 51.10512 | 6.52374 | 36238 ft | 438 kts | 304° |
| 2026-04-17 11:32 | 51.13970 | 6.44380 | 36241 ft | 438 kts | 304° |
| 2026-04-17 11:33 | 51.17420 | 6.36376 | 36259 ft | 438 kts | 304° |
| 2026-04-17 11:33 | 51.20864 | 6.28370 | 36238 ft | 438 kts | 304° |
| 2026-04-17 11:34 | 51.24307 | 6.20341 | 36234 ft | 438 kts | 304° |
| 2026-04-17 11:34 | 51.27747 | 6.12298 | 36237 ft | 438 kts | 303° |
| 2026-04-17 11:35 | 51.31098 | 6.04148 | 36233 ft | 438 kts | 302° |
| 2026-04-17 11:35 | 51.34358 | 5.96112 | 36231 ft | 438 kts | 302° |
| 2026-04-17 11:36 | 51.37957 | 5.88238 | 36233 ft | 439 kts | 310° |
| 2026-04-17 11:36 | 51.42315 | 5.81357 | 36224 ft | 441 kts | 318° |
| 2026-04-17 11:37 | 51.47013 | 5.75115 | 36221 ft | 442 kts | 318° |
| 2026-04-17 11:37 | 51.51760 | 5.68851 | 36217 ft | 442 kts | 318° |
| 2026-04-17 11:38 | 51.56498 | 5.62531 | 36213 ft | 442 kts | 318° |
| 2026-04-17 11:38 | 51.61212 | 5.56193 | 36220 ft | 442 kts | 317° |
| 2026-04-17 11:39 | 51.65926 | 5.49828 | 36224 ft | 442 kts | 317° |
| 2026-04-17 11:39 | 51.70640 | 5.43449 | 36234 ft | 442 kts | 317° |
| 2026-04-17 11:40 | 51.74549 | 5.38142 | 36229 ft | 442 kts | 317° |
| 2026-04-17 11:40 | 51.79258 | 5.31735 | 36229 ft | 442 kts | 317° |
| 2026-04-17 11:41 | 51.83961 | 5.25318 | 36239 ft | 442 kts | 317° |
| 2026-04-17 11:41 | 51.88663 | 5.18885 | 36234 ft | 443 kts | 317° |
| 2026-04-17 11:42 | 51.93378 | 5.12417 | 36231 ft | 443 kts | 317° |
| 2026-04-17 11:42 | 51.98017 | 5.06034 | 36222 ft | 443 kts | 316° |
| 2026-04-17 11:43 | 52.02648 | 4.99643 | 36222 ft | 443 kts | 316° |
| 2026-04-17 11:43 | 52.07335 | 4.93155 | 36219 ft | 442 kts | 316° |
| 2026-04-17 11:44 | 52.12030 | 4.86639 | 36210 ft | 443 kts | 316° |
| 2026-04-17 11:44 | 52.16711 | 4.80127 | 36218 ft | 443 kts | 316° |
| 2026-04-17 11:45 | 52.21488 | 4.73744 | 36221 ft | 445 kts | 318° |
| 2026-04-17 11:45 | 52.26361 | 4.67530 | 36211 ft | 445 kts | 318° |
| 2026-04-17 11:46 | 52.31232 | 4.61274 | 36209 ft | 444 kts | 318° |
| 2026-04-17 11:46 | 52.36076 | 4.54991 | 36217 ft | 445 kts | 318° |
| 2026-04-17 11:47 | 52.40940 | 4.48635 | 36221 ft | 455 kts | 318° |
| 2026-04-17 11:47 | 52.45938 | 4.42089 | 36231 ft | 464 kts | 317° |
| 2026-04-17 11:48 | 52.50985 | 4.35468 | 36221 ft | 464 kts | 317° |
| 2026-04-17 11:48 | 52.56021 | 4.28840 | 36209 ft | 464 kts | 317° |
| 2026-04-17 11:49 | 52.61048 | 4.22203 | 36212 ft | 463 kts | 317° |
| 2026-04-17 11:49 | 52.66172 | 4.15733 | 36208 ft | 463 kts | 320° |
| 2026-04-17 11:50 | 52.71383 | 4.09465 | 36224 ft | 463 kts | 320° |
| 2026-04-17 11:50 | 52.76579 | 4.03169 | 36208 ft | 463 kts | 319° |
| 2026-04-17 11:51 | 52.81646 | 3.96957 | 36206 ft | 463 kts | 319° |
| 2026-04-17 11:51 | 52.86773 | 3.90631 | 36205 ft | 463 kts | 319° |
| 2026-04-17 11:52 | 52.91940 | 3.84236 | 36198 ft | 463 kts | 319° |
| 2026-04-17 11:52 | 52.97109 | 3.77823 | 36210 ft | 464 kts | 319° |
| 2026-04-17 11:53 | 53.02280 | 3.71388 | 36207 ft | 464 kts | 319° |
| 2026-04-17 11:53 | 53.07413 | 3.64980 | 36204 ft | 464 kts | 319° |
| 2026-04-17 11:54 | 53.12584 | 3.58505 | 36207 ft | 465 kts | 319° |
| 2026-04-17 11:54 | 53.18141 | 3.53040 | 36209 ft | 478 kts | 339° |
| 2026-04-17 11:55 | 53.21456 | 3.52090 | 36229 ft | 490 kts | 351° |
| 2026-04-17 11:55 | 53.24900 | 3.52325 | 36201 ft | 502 kts | 5° |
| 2026-04-17 11:55 | 53.31747 | 3.54943 | 36211 ft | 507 kts | 8° |
| 2026-04-17 11:56 | 53.38629 | 3.57704 | 36209 ft | 510 kts | 7° |
| 2026-04-17 11:56 | 53.45554 | 3.60386 | 36206 ft | 511 kts | 7° |
| 2026-04-17 11:57 | 53.52491 | 3.63010 | 36190 ft | 506 kts | 7° |
| 2026-04-17 11:57 | 53.59311 | 3.65588 | 36196 ft | 501 kts | 7° |
| 2026-04-17 11:58 | 53.66111 | 3.68161 | 36202 ft | 501 kts | 7° |
| 2026-04-17 11:58 | 53.72876 | 3.70734 | 36205 ft | 501 kts | 7° |
| 2026-04-17 11:59 | 53.79691 | 3.73337 | 36198 ft | 502 kts | 7° |
| 2026-04-17 11:59 | 53.86526 | 3.75959 | 36196 ft | 503 kts | 7° |
| 2026-04-17 12:00 | 53.93372 | 3.78594 | 36201 ft | 504 kts | 7° |
| 2026-04-17 12:00 | 54.00223 | 3.81239 | 36203 ft | 506 kts | 7° |
| 2026-04-17 12:01 | 54.07086 | 3.83898 | 36198 ft | 506 kts | 7° |
| 2026-04-17 12:01 | 54.13961 | 3.86571 | 36192 ft | 506 kts | 7° |
| 2026-04-17 12:02 | 54.20825 | 3.89249 | 36209 ft | 507 kts | 7° |
| 2026-04-17 12:02 | 54.27701 | 3.91941 | 36197 ft | 507 kts | 7° |
| 2026-04-17 12:03 | 54.34522 | 3.94620 | 36193 ft | 507 kts | 7° |
| 2026-04-17 12:03 | 54.41425 | 3.96937 | 36178 ft | 504 kts | 4° |
| 2026-04-17 12:04 | 54.48338 | 3.98875 | 36187 ft | 503 kts | 3° |
| 2026-04-17 12:04 | 54.55255 | 4.00819 | 36184 ft | 504 kts | 4° |
| 2026-04-17 12:05 | 54.62174 | 4.02841 | 36182 ft | 504 kts | 4° |
| 2026-04-17 12:05 | 54.69091 | 4.04905 | 36199 ft | 505 kts | 4° |
| 2026-04-17 12:06 | 54.76018 | 4.06985 | 36187 ft | 505 kts | 4° |
| 2026-04-17 12:06 | 54.82954 | 4.09072 | 36182 ft | 506 kts | 4° |
| 2026-04-17 12:07 | 54.89904 | 4.11167 | 36177 ft | 506 kts | 4° |
| 2026-04-17 12:07 | 54.96800 | 4.13253 | 36190 ft | 507 kts | 4° |
| 2026-04-17 12:08 | 55.03741 | 4.15359 | 36177 ft | 507 kts | 4° |
| 2026-04-17 12:08 | 55.10702 | 4.17479 | 36169 ft | 508 kts | 4° |
| 2026-04-17 12:09 | 55.17662 | 4.19607 | 36169 ft | 508 kts | 4° |
| 2026-04-17 12:09 | 55.24631 | 4.21744 | 36172 ft | 509 kts | 4° |
| 2026-04-17 12:10 | 55.31603 | 4.23891 | 36165 ft | 509 kts | 4° |
| 2026-04-17 12:10 | 55.38579 | 4.26047 | 36167 ft | 509 kts | 4° |
| 2026-04-17 12:11 | 55.45521 | 4.28199 | 36190 ft | 509 kts | 4° |
| 2026-04-17 12:12 | 55.55994 | 4.31460 | 36164 ft | 510 kts | 4° |
| 2026-04-17 12:12 | 55.62984 | 4.33647 | 36163 ft | 510 kts | 4° |
| 2026-04-17 12:13 | 55.69985 | 4.35846 | 36164 ft | 510 kts | 5° |
| 2026-04-17 12:13 | 55.76981 | 4.38050 | 36174 ft | 511 kts | 5° |
| 2026-04-17 12:14 | 55.83986 | 4.40265 | 36162 ft | 512 kts | 5° |
| 2026-04-17 12:14 | 55.90998 | 4.42492 | 36164 ft | 512 kts | 5° |
| 2026-04-17 12:15 | 55.98016 | 4.44728 | 36162 ft | 512 kts | 5° |
| 2026-04-17 12:15 | 56.05017 | 4.46967 | 36164 ft | 512 kts | 5° |
| 2026-04-17 12:16 | 56.12030 | 4.49218 | 36164 ft | 512 kts | 5° |
| 2026-04-17 12:16 | 56.18998 | 4.51463 | 36163 ft | 512 kts | 5° |
| 2026-04-17 12:17 | 56.26017 | 4.53732 | 36172 ft | 513 kts | 5° |
| 2026-04-17 12:17 | 56.33076 | 4.56019 | 36169 ft | 519 kts | 5° |
| 2026-04-17 12:18 | 56.40194 | 4.58337 | 36159 ft | 520 kts | 5° |
| 2026-04-17 12:18 | 56.47325 | 4.60673 | 36166 ft | 520 kts | 5° |
| 2026-04-17 12:19 | 56.54458 | 4.63016 | 36164 ft | 520 kts | 5° |
| 2026-04-17 12:19 | 56.61534 | 4.65349 | 36169 ft | 519 kts | 5° |
| 2026-04-17 12:20 | 56.68634 | 4.67699 | 36179 ft | 518 kts | 5° |
| 2026-04-17 12:20 | 56.75719 | 4.70052 | 36190 ft | 517 kts | 5° |
| 2026-04-17 12:21 | 56.82797 | 4.72410 | 36174 ft | 517 kts | 5° |
| 2026-04-17 12:21 | 56.89874 | 4.74778 | 36174 ft | 517 kts | 5° |
| 2026-04-17 12:22 | 56.96943 | 4.77153 | 36175 ft | 517 kts | 5° |
| 2026-04-17 12:22 | 57.04013 | 4.79536 | 36192 ft | 517 kts | 5° |
| 2026-04-17 12:23 | 57.10980 | 4.81906 | 36159 ft | 498 kts | 5° |
| 2026-04-17 12:23 | 57.17746 | 4.84209 | 36177 ft | 494 kts | 5° |
| 2026-04-17 12:24 | 57.24407 | 4.86478 | 35865 ft | 479 kts | 5° |
| 2026-04-17 12:24 | 57.27655 | 4.87596 | 34923 ft | 473 kts | 5° |
| 2026-04-17 12:24 | 57.30899 | 4.88703 | 33451 ft | 478 kts | 5° |
| 2026-04-17 12:24 | 57.34181 | 4.89818 | 31499 ft | 487 kts | 5° |
| 2026-04-17 12:25 | 57.37574 | 4.90968 | 30505 ft | 496 kts | 6° |
| 2026-04-17 12:25 | 57.40952 | 4.92131 | 29790 ft | 491 kts | 6° |
| 2026-04-17 12:25 | 57.44298 | 4.93292 | 29102 ft | 487 kts | 6° |
| 2026-04-17 12:25 | 57.47606 | 4.94443 | 28489 ft | 482 kts | 6° |
| 2026-04-17 12:26 | 57.50888 | 4.95585 | 27861 ft | 477 kts | 6° |
| 2026-04-17 12:26 | 57.53079 | 4.96347 | 27436 ft | 474 kts | 6° |
| 2026-04-17 12:26 | 57.56268 | 4.97457 | 26851 ft | 470 kts | 7° |
| 2026-04-17 12:26 | 57.59506 | 4.98583 | 26234 ft | 466 kts | 7° |
| 2026-04-17 12:27 | 57.62648 | 4.99677 | 25650 ft | 463 kts | 7° |
| 2026-04-17 12:27 | 57.65663 | 5.00729 | 25077 ft | 460 kts | 7° |
| 2026-04-17 12:27 | 57.68805 | 5.01827 | 24504 ft | 457 kts | 8° |
| 2026-04-17 12:27 | 57.71920 | 5.02918 | 23928 ft | 454 kts | 8° |
| 2026-04-17 12:28 | 57.75022 | 5.04007 | 23259 ft | 452 kts | 8° |
| 2026-04-17 12:28 | 57.78097 | 5.05089 | 22633 ft | 449 kts | 8° |
| 2026-04-17 12:28 | 57.81155 | 5.06167 | 22058 ft | 445 kts | 8° |
| 2026-04-17 12:28 | 57.84178 | 5.07234 | 21491 ft | 441 kts | 8° |
| 2026-04-17 12:29 | 57.87191 | 5.08300 | 20929 ft | 438 kts | 8° |
| 2026-04-17 12:29 | 57.90179 | 5.09358 | 20375 ft | 435 kts | 8° |
| 2026-04-17 12:29 | 57.93146 | 5.10411 | 19829 ft | 433 kts | 8° |
| 2026-04-17 12:29 | 57.96104 | 5.11462 | 19288 ft | 431 kts | 8° |
| 2026-04-17 12:30 | 57.99009 | 5.12495 | 18733 ft | 429 kts | 8° |
| 2026-04-17 12:30 | 58.01923 | 5.13534 | 18152 ft | 427 kts | 9° |
| 2026-04-17 12:30 | 58.04882 | 5.14591 | 17539 ft | 425 kts | 9° |
| 2026-04-17 12:30 | 58.07778 | 5.15627 | 16965 ft | 422 kts | 9° |
| 2026-04-17 12:31 | 58.10617 | 5.16644 | 16472 ft | 420 kts | 9° |
| 2026-04-17 12:31 | 58.13498 | 5.17655 | 15932 ft | 420 kts | 7° |
| 2026-04-17 12:31 | 58.16394 | 5.18389 | 15454 ft | 414 kts | 4° |
| 2026-04-17 12:31 | 58.19172 | 5.18902 | 15186 ft | 388 kts | 2° |
| 2026-04-17 12:32 | 58.21797 | 5.19338 | 14702 ft | 371 kts | 3° |
| 2026-04-17 12:32 | 58.24312 | 5.19758 | 14309 ft | 354 kts | 2° |
| 2026-04-17 12:32 | 58.26715 | 5.20176 | 13922 ft | 340 kts | 2° |
| 2026-04-17 12:32 | 58.29025 | 5.20592 | 13498 ft | 327 kts | 3° |
| 2026-04-17 12:33 | 58.31269 | 5.21007 | 13083 ft | 321 kts | 3° |
| 2026-04-17 12:33 | 58.33493 | 5.21423 | 12701 ft | 323 kts | 3° |
| 2026-04-17 12:33 | 58.35743 | 5.21765 | 12304 ft | 323 kts | 356° |
| 2026-04-17 12:33 | 58.37961 | 5.21250 | 11898 ft | 322 kts | 346° |
| 2026-04-17 12:34 | 58.40156 | 5.20347 | 11493 ft | 323 kts | 344° |
| 2026-04-17 12:34 | 58.42340 | 5.19369 | 11109 ft | 322 kts | 343° |
| 2026-04-17 12:34 | 58.44518 | 5.18365 | 10713 ft | 321 kts | 343° |
| 2026-04-17 12:34 | 58.46687 | 5.17355 | 10331 ft | 321 kts | 343° |
| 2026-04-17 12:35 | 58.48821 | 5.16356 | 9924 ft | 320 kts | 343° |
| 2026-04-17 12:35 | 58.50987 | 5.15338 | 9521 ft | 320 kts | 343° |
| 2026-04-17 12:35 | 58.53141 | 5.14310 | 9142 ft | 318 kts | 343° |
| 2026-04-17 12:35 | 58.55279 | 5.13274 | 8770 ft | 315 kts | 343° |
| 2026-04-17 12:37 | 58.69550 | 5.06193 | 6728 ft | 298 kts | 343° |
| 2026-04-17 12:37 | 58.71560 | 5.05161 | 6459 ft | 298 kts | 343° |
| 2026-04-17 12:38 | 58.73558 | 5.04121 | 6153 ft | 297 kts | 343° |
| 2026-04-17 12:38 | 58.75525 | 5.02996 | 5866 ft | 293 kts | 337° |
| 2026-04-17 12:38 | 58.77396 | 5.01472 | 5583 ft | 290 kts | 333° |
| 2026-04-17 12:38 | 58.79214 | 4.99863 | 5300 ft | 283 kts | 333° |
| 2026-04-17 12:39 | 58.80956 | 4.98280 | 5020 ft | 277 kts | 333° |
| 2026-04-17 12:39 | 58.82669 | 4.96694 | 4683 ft | 262 kts | 333° |
| 2026-04-17 12:39 | 58.84282 | 4.95191 | 4388 ft | 261 kts | 332° |
| 2026-04-17 12:39 | 58.85922 | 4.93657 | 4112 ft | 260 kts | 332° |
| 2026-04-17 12:40 | 58.87551 | 4.92129 | 3823 ft | 259 kts | 332° |
| 2026-04-17 12:40 | 58.89168 | 4.90607 | 3555 ft | 258 kts | 333° |
| 2026-04-17 12:40 | 58.90817 | 4.89406 | 3266 ft | 252 kts | 356° |
| 2026-04-17 12:40 | 58.92467 | 4.90087 | 3034 ft | 240 kts | 39° |
| 2026-04-17 12:41 | 58.93458 | 4.92469 | 2938 ft | 224 kts | 78° |
| 2026-04-17 12:41 | 58.93828 | 4.95391 | 2768 ft | 225 kts | 86° |
| 2026-04-17 12:41 | 58.94117 | 4.98349 | 2700 ft | 221 kts | 87° |
| 2026-04-17 12:41 | 58.94400 | 5.01253 | 2662 ft | 218 kts | 87° |
| 2026-04-17 12:42 | 58.94678 | 5.04130 | 2629 ft | 218 kts | 88° |
| 2026-04-17 12:42 | 58.94959 | 5.07021 | 2599 ft | 219 kts | 87° |
| 2026-04-17 12:42 | 58.95232 | 5.09918 | 2568 ft | 217 kts | 87° |
| 2026-04-17 12:42 | 58.95301 | 5.12743 | 2509 ft | 206 kts | 102° |
| 2026-04-17 12:43 | 58.95063 | 5.15443 | 2498 ft | 202 kts | 110° |
| 2026-04-17 12:43 | 58.94652 | 5.18042 | 2487 ft | 202 kts | 113° |
| 2026-04-17 12:43 | 58.94225 | 5.20642 | 2454 ft | 202 kts | 112° |
| 2026-04-17 12:43 | 58.93812 | 5.23243 | 2425 ft | 202 kts | 112° |
| 2026-04-17 12:44 | 58.93406 | 5.25847 | 2410 ft | 202 kts | 111° |
| 2026-04-17 12:44 | 58.93005 | 5.28458 | 2389 ft | 202 kts | 111° |
| 2026-04-17 12:44 | 58.92611 | 5.31034 | 2344 ft | 202 kts | 111° |
| 2026-04-17 12:44 | 58.92224 | 5.33586 | 2202 ft | 192 kts | 111° |
| 2026-04-17 12:45 | 58.91863 | 5.35984 | 2070 ft | 179 kts | 111° |
| 2026-04-17 12:45 | 58.91531 | 5.38209 | 1996 ft | 164 kts | 111° |
| 2026-04-17 12:45 | 58.91226 | 5.40254 | 1961 ft | 156 kts | 111° |
| 2026-04-17 12:45 | 58.90926 | 5.42249 | 1963 ft | 154 kts | 111° |
| 2026-04-17 12:46 | 58.90616 | 5.44279 | 1856 ft | 164 kts | 111° |
| 2026-04-17 12:46 | 58.90298 | 5.46381 | 1610 ft | 161 kts | 111° |
| 2026-04-17 12:46 | 58.90019 | 5.48433 | 1389 ft | 155 kts | 109° |
| 2026-04-17 12:46 | 58.89761 | 5.50407 | 1124 ft | 145 kts | 111° |
| 2026-04-17 12:47 | 58.89502 | 5.52133 | 921 ft | 126 kts | 112° |
| 2026-04-17 12:47 | 58.89253 | 5.53725 | 590 ft | 126 kts | 111° |
| 2026-04-17 12:47 | 58.88993 | 5.55327 | 456 ft | 124 kts | 114° |
| 2026-04-17 12:47 | 58.88715 | 5.56932 | 462 ft | 126 kts | 113° |
| 2026-04-17 12:48 | 58.88466 | 5.58629 | 302 ft | 133 kts | 110° |
| 2026-04-17 12:48 | 58.88210 | 5.60315 | 105 ft | 127 kts | 111° |
| 2026-04-17 12:48 | 58.87970 | 5.61851 | 28 ft | 111 kts | 107° |
| 2026-04-17 12:48 | 58.87803 | 5.62967 | 33 ft | 39 kts | 106° |
| 2026-04-17 12:49 | 58.87769 | 5.63254 | 36 ft | 12 kts | 76° |
| 2026-04-17 12:49 | 58.87824 | 5.63288 | 36 ft | 11 kts | 4° |
| 2026-04-17 12:49 | 58.87897 | 5.63329 | 36 ft | 11 kts | 22° |
| 2026-04-17 12:49 | 58.87971 | 5.63387 | 35 ft | 12 kts | 22° |
| 2026-04-17 12:50 | 58.88055 | 5.63433 | 35 ft | 13 kts | 360° |
| 2026-04-17 12:50 | 58.88147 | 5.63432 | 35 ft | 13 kts | 359° |
| 2026-04-17 12:50 | 58.88241 | 5.63422 | 35 ft | 14 kts | 346° |
| 2026-04-17 12:50 | 58.88288 | 5.63294 | 35 ft | 13 kts | 309° |
| 2026-04-17 12:51 | 58.88370 | 5.63219 | 33 ft | 14 kts | 336° |
| 2026-04-17 12:51 | 58.88466 | 5.63056 | 30 ft | 22 kts | 314° |
| 2026-04-17 12:51 | 58.88544 | 5.62915 | 28 ft | 9 kts | 322° |
| 2026-04-17 12:51 | 58.88577 | 5.62866 | 29 ft | 0 kts | 322° |
| 2026-04-17 12:52 | 58.88607 | 5.62814 | 31 ft | 3 kts | 305° |
| 2026-04-17 12:52 | 58.88608 | 5.62763 | 30 ft | 5 kts | 264° |
| 2026-04-17 12:53 | 58.88604 | 5.62726 | 30 ft | 2 kts | 256° |
| 2026-04-17 12:53 | 58.88603 | 5.62718 | 29 ft | 0 kts | 256° |